Time;durP1;ratioP1;P1;durP2;ratioP2;P2;SDS_P1;SDS_P2;PMS_P1;PMS_P2;Temp;Humidity;BMP_temperature;BMP_pressure;BME280_temperature;BME280_humidity;BME280_pressure;Samples;Min_cycle;Max_cycle;Signal;HPM_P1;HPM_P2
2023/05/09 00:01:35;;;;;;;;;6.00;6.00;;;;;-147.17;100.00;-15917.19;5047220;28;51179;-70
2023/05/09 00:04:00;;;;;;;;;5.00;5.00;;;;;-147.17;100.00;-15917.19;5051175;28;52399;-71
2023/05/09 00:06:26;;;;;;;;;4.67;4.67;;;;;-147.17;100.00;-15917.19;5048962;28;51684;-71
2023/05/09 00:08:53;;;;;;;;;6.33;5.00;;;;;-147.17;100.00;-15917.19;5052758;27;53485;-71
2023/05/09 00:11:18;;;;;;;;;5.00;5.00;;;;;-147.17;100.00;-15917.19;5030335;28;51505;-71
2023/05/09 00:13:44;;;;;;;;;6.00;5.67;;;;;-147.17;100.00;-15917.19;5052578;27;51769;-71
2023/05/09 00:16:10;;;;;;;;;5.00;5.00;;;;;-147.17;100.00;-15917.19;5050372;28;52425;-70
2023/05/09 00:18:36;;;;;;;;;5.00;5.00;;;;;-147.17;100.00;-15917.19;5054100;28;51258;-71
2023/05/09 00:21:02;;;;;;;;;5.00;4.67;;;;;-147.17;100.00;-15917.19;5050420;28;51689;-72
2023/05/09 00:23:31;;;;;;;;;5.00;5.00;;;;;-147.17;100.00;-15917.19;5048357;28;52124;-72
2023/05/09 00:25:57;;;;;;;;;5.00;5.00;;;;;-147.17;100.00;-15917.19;5051175;27;52576;-71
2023/05/09 00:28:22;;;;;;;;;6.00;6.00;;;;;-147.17;100.00;-15917.19;5049688;28;51756;-72
2023/05/09 00:30:47;;;;;;;;;5.00;5.00;;;;;-147.17;100.00;-15917.19;5047729;28;51920;-72
2023/05/09 00:33:13;;;;;;;;;4.67;4.67;;;;;-147.17;100.00;-15917.19;5046943;28;52704;-71
2023/05/09 00:35:39;;;;;;;;;6.00;6.00;;;;;-147.17;100.00;-15917.19;5052479;28;51446;-70
2023/05/09 00:38:04;;;;;;;;;5.00;5.00;;;;;-147.17;100.00;-15917.19;5044601;28;52911;-71
2023/05/09 00:40:30;;;;;;;;;5.67;5.67;;;;;-147.17;100.00;-15917.19;5043814;28;52701;-72
2023/05/09 00:42:58;;;;;;;;;4.00;4.00;;;;;-147.17;100.00;-15917.19;5038308;27;52863;-71
2023/05/09 00:45:24;;;;;;;;;5.33;5.33;;;;;-147.17;100.00;-15917.19;5049725;28;51228;-73
2023/05/09 00:47:49;;;;;;;;;5.33;5.33;;;;;-147.17;100.00;-15917.19;5047355;28;53136;-72
2023/05/09 00:50:15;;;;;;;;;6.33;6.33;;;;;-147.17;100.00;-15917.19;5045918;28;51893;-74
2023/05/09 00:52:41;;;;;;;;;6.00;6.00;;;;;-147.17;100.00;-15917.19;5025749;28;52748;-73
2023/05/09 00:55:07;;;;;;;;;5.33;5.33;;;;;-147.17;100.00;-15917.19;5050623;28;51698;-73
2023/05/09 00:57:33;;;;;;;;;7.00;6.33;;;;;-147.17;100.00;-15917.19;5046485;28;51320;-74
2023/05/09 00:59:59;;;;;;;;;5.00;5.00;;;;;-147.17;100.00;-15917.19;5047516;28;51974;-71
2023/05/09 01:02:26;;;;;;;;;6.00;6.00;;;;;-147.17;100.00;-15917.19;5046186;27;52445;-73
2023/05/09 01:04:52;;;;;;;;;5.00;5.00;;;;;-147.17;100.00;-15917.19;5023991;28;51268;-71
2023/05/09 01:07:42;;;;;;;;;5.33;5.33;;;;;-147.17;100.00;-15917.19;5045759;27;52024;-72
2023/05/09 01:10:47;;;;;;;;;6.00;5.00;;;;;-147.17;100.00;-15917.19;5048278;28;51179;-73
2023/05/09 01:13:38;;;;;;;;;5.33;5.33;;;;;-147.17;100.00;-15917.19;5046520;28;52631;-72
2023/05/09 01:16:11;;;;;;;;;6.00;5.00;;;;;-147.17;100.00;-15917.19;5017559;28;53100;-71
2023/05/09 01:18:59;;;;;;;;;5.33;5.33;;;;;-147.17;100.00;-15917.19;5027686;28;52163;-71
2023/05/09 01:21:31;;;;;;;;;3.67;3.67;;;;;-147.17;100.00;-15917.19;5046814;28;52077;-71
2023/05/09 01:24:31;;;;;;;;;5.00;5.00;;;;;-147.17;100.00;-15917.19;5050347;28;51792;-73
2023/05/09 01:27:15;;;;;;;;;4.33;4.33;;;;;-147.17;100.00;-15917.19;5046475;28;52854;-74
2023/05/09 01:29:47;;;;;;;;;5.00;5.00;;;;;-147.17;100.00;-15917.19;5045993;28;51814;-73
2023/05/09 01:32:18;;;;;;;;;5.00;5.00;;;;;-147.17;100.00;-15917.19;5053680;28;51280;-72
2023/05/09 01:34:45;;;;;;;;;5.00;4.67;;;;;-147.17;100.00;-15917.19;5048613;27;52622;-72
2023/05/09 01:37:14;;;;;;;;;4.67;4.67;;;;;-147.17;100.00;-15917.19;5051519;28;51274;-71
2023/05/09 01:39:43;;;;;;;;;5.00;5.00;;;;;-147.17;100.00;-15917.19;5049603;28;52843;-71
2023/05/09 01:42:11;;;;;;;;;5.33;5.00;;;;;-147.17;100.00;-15917.19;5051292;28;51320;-71
2023/05/09 01:44:40;;;;;;;;;5.67;4.67;;;;;-147.17;100.00;-15917.19;5047378;28;52476;-72
2023/05/09 01:47:06;;;;;;;;;4.33;4.33;;;;;-147.17;100.00;-15917.19;5050567;28;51249;-71
2023/05/09 01:49:34;;;;;;;;;7.00;6.33;;;;;-147.17;100.00;-15917.19;5044869;28;51300;-72
2023/05/09 01:52:04;;;;;;;;;5.00;4.67;;;;;-147.17;100.00;-15917.19;5049582;28;51080;-72
2023/05/09 01:54:31;;;;;;;;;5.00;4.67;;;;;-147.17;100.00;-15917.19;5047604;28;54325;-70
2023/05/09 01:56:58;;;;;;;;;5.00;5.00;;;;;-147.17;100.00;-15917.19;5049968;28;51358;-71
2023/05/09 01:59:26;;;;;;;;;4.67;4.00;;;;;-147.17;100.00;-15917.19;5045837;28;51880;-71
2023/05/09 02:01:53;;;;;;;;;5.33;5.33;;;;;-147.17;100.00;-15917.19;5048279;28;52634;-71
2023/05/09 02:04:20;;;;;;;;;5.33;5.33;;;;;-147.17;100.00;-15917.19;5046056;28;52813;-70
2023/05/09 02:06:51;;;;;;;;;6.00;5.00;;;;;-147.17;100.00;-15917.19;5047845;27;51806;-73
2023/05/09 02:09:18;;;;;;;;;5.33;5.00;;;;;-147.17;100.00;-15917.19;5047316;28;51307;-71
2023/05/09 02:11:43;;;;;;;;;4.00;4.00;;;;;-147.17;100.00;-15917.19;5051108;28;52574;-72
2023/05/09 02:14:09;;;;;;;;;4.00;4.00;;;;;-147.17;100.00;-15917.19;5048673;28;51694;-70
2023/05/09 02:16:34;;;;;;;;;5.00;4.00;;;;;-147.17;100.00;-15917.19;5049061;28;51232;-72
2023/05/09 02:18:59;;;;;;;;;5.00;5.00;;;;;-147.17;100.00;-15917.19;5048998;28;51433;-73
2023/05/09 02:21:25;;;;;;;;;5.33;5.33;;;;;-147.17;100.00;-15917.19;5050166;28;51280;-72
2023/05/09 02:23:51;;;;;;;;;5.33;5.00;;;;;-147.17;100.00;-15917.19;5048026;28;52189;-72
2023/05/09 02:26:16;;;;;;;;;4.00;4.00;;;;;-147.17;100.00;-15917.19;5049244;28;51780;-72
2023/05/09 02:28:44;;;;;;;;;7.00;6.33;;;;;-147.17;100.00;-15917.19;5033694;28;51482;-73
2023/05/09 02:31:12;;;;;;;;;5.00;5.00;;;;;-147.17;100.00;-15917.19;5049607;28;52559;-72
2023/05/09 02:33:39;;;;;;;;;4.00;4.00;;;;;-147.17;100.00;-15917.19;5047131;28;51949;-72
2023/05/09 02:36:05;;;;;;;;;6.00;6.00;;;;;-147.17;100.00;-15917.19;5031514;28;51752;-72
2023/05/09 02:38:31;;;;;;;;;6.00;5.00;;;;;-147.17;100.00;-15917.19;5032349;28;51243;-72
2023/05/09 02:40:56;;;;;;;;;4.00;4.00;;;;;-147.17;100.00;-15917.19;5048301;28;52631;-72
2023/05/09 02:43:22;;;;;;;;;4.33;4.00;;;;;-147.17;100.00;-15917.19;5049459;28;51492;-72
2023/05/09 02:45:47;;;;;;;;;4.33;4.00;;;;;-147.17;100.00;-15917.19;5048205;28;51955;-73
2023/05/09 02:48:12;;;;;;;;;6.00;6.00;;;;;-147.17;100.00;-15917.19;5033879;28;51184;-72
2023/05/09 02:50:40;;;;;;;;;3.67;3.67;;;;;-147.17;100.00;-15917.19;5051290;28;52863;-71
2023/05/09 02:53:06;;;;;;;;;5.00;5.00;;;;;-147.17;100.00;-15917.19;5049198;28;51870;-71
2023/05/09 02:55:31;;;;;;;;;6.33;6.00;;;;;-147.17;100.00;-15917.19;5048289;28;51250;-70
2023/05/09 02:57:56;;;;;;;;;5.00;5.00;;;;;-147.17;100.00;-15917.19;5047447;28;51754;-72
2023/05/09 03:00:24;;;;;;;;;5.00;5.00;;;;;-147.17;100.00;-15917.19;5051330;28;53063;-73
2023/05/09 03:02:50;;;;;;;;;4.00;4.00;;;;;-147.17;100.00;-15917.19;5050786;28;52817;-71
2023/05/09 03:05:16;;;;;;;;;5.00;5.00;;;;;-147.17;100.00;-15917.19;5056615;28;51488;-72
2023/05/09 03:07:43;;;;;;;;;6.00;5.00;;;;;-147.17;100.00;-15917.19;5067801;28;51172;-72
2023/05/09 03:10:11;;;;;;;;;5.00;5.00;;;;;-147.17;100.00;-15917.19;5065947;28;53570;-71
2023/05/09 03:12:37;;;;;;;;;5.00;5.00;;;;;-147.17;100.00;-15917.19;5069016;28;52053;-72
2023/05/09 03:15:03;;;;;;;;;6.00;5.00;;;;;-147.17;100.00;-15917.19;5073242;28;51088;-73
2023/05/09 03:17:28;;;;;;;;;6.00;5.00;;;;;-147.17;100.00;-15917.19;5069157;28;51164;-72
2023/05/09 03:19:54;;;;;;;;;5.00;5.00;;;;;-147.17;100.00;-15917.19;5073396;28;51944;-70
2023/05/09 03:22:19;;;;;;;;;5.00;5.00;;;;;-147.17;100.00;-15917.19;5073130;28;51473;-72
2023/05/09 03:24:44;;;;;;;;;6.00;5.00;;;;;-147.17;100.00;-15917.19;5072311;28;57373;-72
2023/05/09 03:27:10;;;;;;;;;5.00;4.67;;;;;-147.17;100.00;-15917.19;5068132;28;51218;-72
2023/05/09 03:29:35;;;;;;;;;7.33;6.33;;;;;-147.17;100.00;-15917.19;5060971;28;51497;-72
2023/05/09 03:32:00;;;;;;;;;5.67;4.33;;;;;-147.17;100.00;-15917.19;5052724;28;51918;-71
2023/05/09 03:34:26;;;;;;;;;6.00;5.00;;;;;-147.17;100.00;-15917.19;5052518;28;51720;-71
2023/05/09 03:36:51;;;;;;;;;4.67;4.67;;;;;-147.17;100.00;-15917.19;5055640;28;51172;-72
2023/05/09 03:39:16;;;;;;;;;6.00;5.67;;;;;-147.17;100.00;-15917.19;5073174;28;51212;-71
2023/05/09 03:41:43;;;;;;;;;5.00;5.00;;;;;-147.17;100.00;-15917.19;5072667;28;51132;-72
2023/05/09 03:44:08;;;;;;;;;6.00;5.00;;;;;-147.17;100.00;-15917.19;5065375;28;51149;-69
2023/05/09 03:46:34;;;;;;;;;4.67;4.67;;;;;-147.17;100.00;-15917.19;5060701;28;51093;-71
2023/05/09 03:48:59;;;;;;;;;6.00;5.00;;;;;-147.17;100.00;-15917.19;5073219;28;51297;-71
2023/05/09 03:51:25;;;;;;;;;4.33;3.67;;;;;-147.17;100.00;-15917.19;5060828;28;51959;-72
2023/05/09 03:53:50;;;;;;;;;3.00;3.00;;;;;-147.17;100.00;-15917.19;5060612;28;51158;-71
2023/05/09 03:56:15;;;;;;;;;3.00;3.00;;;;;-147.17;100.00;-15917.19;5064678;28;51058;-71
2023/05/09 03:58:41;;;;;;;;;3.00;3.00;;;;;-147.17;100.00;-15917.19;5068340;28;50951;-72
2023/05/09 04:01:06;;;;;;;;;4.00;4.00;;;;;-147.17;100.00;-15917.19;5063120;28;66954;-72
2023/05/09 04:03:31;;;;;;;;;4.33;4.33;;;;;-147.17;100.00;-15917.19;5068776;28;51281;-72
2023/05/09 04:05:57;;;;;;;;;4.00;4.00;;;;;-147.17;100.00;-15917.19;5070025;28;51458;-72
2023/05/09 04:08:23;;;;;;;;;3.00;3.00;;;;;-147.17;100.00;-15917.19;5069207;28;51326;-72
2023/05/09 04:10:49;;;;;;;;;4.00;4.00;;;;;-147.17;100.00;-15917.19;5052135;28;51403;-72
2023/05/09 04:13:15;;;;;;;;;3.00;3.00;;;;;-147.17;100.00;-15917.19;5042841;28;51211;-72
2023/05/09 04:15:40;;;;;;;;;1.33;1.33;;;;;-147.17;100.00;-15917.19;5068634;28;51164;-72
2023/05/09 04:18:06;;;;;;;;;3.00;3.00;;;;;-147.17;100.00;-15917.19;5067451;28;51159;-72
2023/05/09 04:20:31;;;;;;;;;3.67;3.67;;;;;-147.17;100.00;-15917.19;5062904;28;52006;-73
2023/05/09 04:22:57;;;;;;;;;3.00;3.00;;;;;-147.17;100.00;-15917.19;5067977;28;51054;-73
2023/05/09 04:25:23;;;;;;;;;3.00;2.00;;;;;-147.17;100.00;-15917.19;5071898;28;51085;-72
2023/05/09 04:27:48;;;;;;;;;2.00;2.00;;;;;-147.17;100.00;-15917.19;5052061;28;50920;-73
2023/05/09 04:30:14;;;;;;;;;3.00;3.00;;;;;-147.17;100.00;-15917.19;5071263;28;55281;-72
2023/05/09 04:32:44;;;;;;;;;2.00;2.00;;;;;-147.17;100.00;-15917.19;5071804;28;51332;-71
2023/05/09 04:35:10;;;;;;;;;2.00;2.00;;;;;-147.17;100.00;-15917.19;5068618;28;51077;-72
2023/05/09 04:37:35;;;;;;;;;1.00;1.00;;;;;-147.17;100.00;-15917.19;5056635;28;51045;-71
2023/05/09 04:40:01;;;;;;;;;1.00;1.00;;;;;-147.17;100.00;-15917.19;5051948;28;51205;-71
2023/05/09 04:42:26;;;;;;;;;1.00;1.00;;;;;-147.17;100.00;-15917.19;5060558;28;51085;-70
2023/05/09 04:44:52;;;;;;;;;2.00;1.00;;;;;-147.17;100.00;-15917.19;5072666;28;51015;-71
2023/05/09 04:47:17;;;;;;;;;2.00;1.00;;;;;-147.17;100.00;-15917.19;5072365;28;50938;-71
2023/05/09 04:49:42;;;;;;;;;1.67;1.67;;;;;-147.17;100.00;-15917.19;5064891;27;57849;-71
2023/05/09 04:52:08;;;;;;;;;1.33;1.33;;;;;-147.17;100.00;-15917.19;5059295;28;50985;-70
2023/05/09 04:54:33;;;;;;;;;1.33;1.33;;;;;-147.17;100.00;-15917.19;5070976;28;51680;-71
2023/05/09 04:56:58;;;;;;;;;2.00;1.00;;;;;-147.17;100.00;-15917.19;5073744;28;50900;-71
2023/05/09 04:59:24;;;;;;;;;1.67;1.67;;;;;-147.17;100.00;-15917.19;5072120;28;51811;-71
2023/05/09 05:01:49;;;;;;;;;4.00;4.00;;;;;-147.17;100.00;-15917.19;5070330;28;51002;-71
2023/05/09 05:04:14;;;;;;;;;2.33;2.00;;;;;-147.17;100.00;-15917.19;5063219;28;51150;-70
2023/05/09 05:06:40;;;;;;;;;2.00;2.00;;;;;-147.17;100.00;-15917.19;5066922;28;51318;-72
2023/05/09 05:09:05;;;;;;;;;1.00;1.00;;;;;-147.17;100.00;-15917.19;5047855;28;59427;-72
2023/05/09 05:11:30;;;;;;;;;3.00;2.00;;;;;-147.17;100.00;-15917.19;5065962;28;51105;-72
2023/05/09 05:13:56;;;;;;;;;1.00;1.00;;;;;-147.17;100.00;-15917.19;5072280;28;50924;-72
2023/05/09 05:16:21;;;;;;;;;1.33;1.33;;;;;-147.17;100.00;-15917.19;5069962;28;52381;-72
2023/05/09 05:18:46;;;;;;;;;2.33;2.33;;;;;-147.17;100.00;-15917.19;5071667;28;52012;-72
2023/05/09 05:21:12;;;;;;;;;2.00;2.00;;;;;-147.17;100.00;-15917.19;5071612;28;51369;-72
2023/05/09 05:23:37;;;;;;;;;2.00;2.00;;;;;-147.17;100.00;-15917.19;5058136;28;51134;-70
2023/05/09 05:26:03;;;;;;;;;2.67;2.00;;;;;-147.17;100.00;-15917.19;5058946;28;51047;-71
2023/05/09 05:28:28;;;;;;;;;3.00;3.00;;;;;-147.17;100.00;-15917.19;5074782;28;51969;-70
2023/05/09 05:30:53;;;;;;;;;3.00;3.00;;;;;-147.17;100.00;-15917.19;5050013;28;51066;-72
2023/05/09 05:33:19;;;;;;;;;3.33;3.00;;;;;-147.17;100.00;-15917.19;5067982;28;51068;-71
2023/05/09 05:35:44;;;;;;;;;3.00;3.00;;;;;-147.17;100.00;-15917.19;5069583;28;51108;-72
2023/05/09 05:38:10;;;;;;;;;4.00;4.00;;;;;-147.17;100.00;-15917.19;5067717;28;51909;-72
2023/05/09 05:40:35;;;;;;;;;2.50;2.50;;;;;-147.17;100.00;-15917.19;5073007;27;51353;-72
2023/05/09 05:43:00;;;;;;;;;3.00;3.00;;;;;-147.17;100.00;-15917.19;5063807;28;51244;-74
2023/05/09 05:45:26;;;;;;;;;2.00;2.00;;;;;-147.17;100.00;-15917.19;5059384;28;51324;-73
2023/05/09 05:47:51;;;;;;;;;4.67;4.67;;;;;-147.17;100.00;-15917.19;5068799;28;52680;-73
2023/05/09 05:50:16;;;;;;;;;3.33;3.33;;;;;-147.17;100.00;-15917.19;5071388;28;50974;-72
2023/05/09 05:52:42;;;;;;;;;2.00;2.00;;;;;-147.17;100.00;-15917.19;5073356;28;51118;-73
2023/05/09 05:55:08;;;;;;;;;3.00;3.00;;;;;-147.17;100.00;-15917.19;5063730;28;50894;-72
2023/05/09 05:57:34;;;;;;;;;3.67;3.00;;;;;-147.17;100.00;-15917.19;5062224;27;51920;-71
2023/05/09 05:59:59;;;;;;;;;2.00;2.00;;;;;-147.17;100.00;-15917.19;5059033;28;53202;-72
2023/05/09 06:02:24;;;;;;;;;2.00;2.00;;;;;-147.17;100.00;-15917.19;5067022;27;51103;-72
2023/05/09 06:04:50;;;;;;;;;62.50;50.00;;;;;-147.17;100.00;-15917.19;5066233;28;51171;-72
2023/05/09 06:07:15;;;;;;;;;2.00;2.00;;;;;-147.17;100.00;-15917.19;5050312;28;61022;-72
2023/05/09 06:09:40;;;;;;;;;2.00;2.00;;;;;-147.17;100.00;-15917.19;5054363;28;50974;-72
2023/05/09 06:12:06;;;;;;;;;2.00;2.00;;;;;-147.17;100.00;-15917.19;5053614;28;51324;-73
2023/05/09 06:14:31;;;;;;;;;1.00;1.00;;;;;-147.17;100.00;-15917.19;5068834;28;51208;-72
2023/05/09 06:17:00;;;;;;;;;3.00;2.67;;;;;-147.17;100.00;-15917.19;5063530;28;54020;-73
2023/05/09 06:19:25;;;;;;;;;1.00;1.00;;;;;-147.17;100.00;-15917.19;5069222;28;51218;-72
2023/05/09 06:21:51;;;;;;;;;2.00;2.00;;;;;-147.17;100.00;-15917.19;5068813;28;51092;-72
2023/05/09 06:24:16;;;;;;;;;1.00;1.00;;;;;-147.17;100.00;-15917.19;5068971;28;51171;-72
2023/05/09 06:26:42;;;;;;;;;4.00;2.33;;;;;-147.17;100.00;-15917.19;5066037;28;51577;-71
2023/05/09 06:29:07;;;;;;;;;2.00;2.00;;;;;-147.17;100.00;-15917.19;5065813;27;51182;-72
2023/05/09 06:31:37;;;;;;;;;3.67;3.67;;;;;-147.17;100.00;-15917.19;5063277;27;51182;-72
2023/05/09 06:34:03;;;;;;;;;2.00;2.00;;;;;-147.17;100.00;-15917.19;5066169;28;51372;-72
2023/05/09 06:36:29;;;;;;;;;5.67;4.33;;;;;-147.17;100.00;-15917.19;5072059;28;51855;-73
2023/05/09 06:38:55;;;;;;;;;3.00;3.00;;;;;-147.17;100.00;-15917.19;5056338;28;51071;-72
2023/05/09 06:41:20;;;;;;;;;2.67;2.67;;;;;-147.17;100.00;-15917.19;5060336;28;51257;-72
2023/05/09 06:43:45;;;;;;;;;3.00;2.00;;;;;-147.17;100.00;-15917.19;5070994;28;51326;-72
2023/05/09 06:46:11;;;;;;;;;3.00;3.00;;;;;-147.17;100.00;-15917.19;5063812;28;61625;-72
2023/05/09 06:48:36;;;;;;;;;5.33;5.33;;;;;-147.17;100.00;-15917.19;5053693;28;51048;-72
2023/05/09 06:51:01;;;;;;;;;4.00;3.00;;;;;-147.17;100.00;-15917.19;5059168;27;51199;-72
2023/05/09 06:53:27;;;;;;;;;2.00;2.00;;;;;-147.17;100.00;-15917.19;5073954;28;51125;-72
2023/05/09 06:55:52;;;;;;;;;4.00;4.00;;;;;-147.17;100.00;-15917.19;5064619;28;51973;-71
2023/05/09 06:58:17;;;;;;;;;5.00;4.00;;;;;-147.17;100.00;-15917.19;5073349;28;51007;-72
2023/05/09 07:00:43;;;;;;;;;3.00;3.00;;;;;-147.17;100.00;-15917.19;5067415;28;51287;-71
2023/05/09 07:03:09;;;;;;;;;4.00;4.00;;;;;-147.17;100.00;-15917.19;5057196;28;51456;-73
2023/05/09 07:05:34;;;;;;;;;4.00;4.00;;;;;-147.17;100.00;-15917.19;5061214;28;52839;-70
2023/05/09 07:08:00;;;;;;;;;1.00;1.00;;;;;-147.17;100.00;-15917.19;5059003;28;50988;-72
2023/05/09 07:10:25;;;;;;;;;3.00;3.00;;;;;-147.17;100.00;-15917.19;5072037;28;51096;-71
2023/05/09 07:12:51;;;;;;;;;3.00;3.00;;;;;-147.17;100.00;-15917.19;5069204;28;51118;-71
2023/05/09 07:15:17;;;;;;;;;2.33;2.33;;;;;-147.17;100.00;-15917.19;5052675;28;52025;-70
2023/05/09 07:17:42;;;;;;;;;2.00;2.00;;;;;-147.17;100.00;-15917.19;5067125;28;51240;-72
2023/05/09 07:20:08;;;;;;;;;5.00;4.67;;;;;-147.17;100.00;-15917.19;5068017;28;51259;-72
2023/05/09 07:22:33;;;;;;;;;4.00;3.67;;;;;-147.17;100.00;-15917.19;5069242;28;51077;-71
2023/05/09 07:24:59;;;;;;;;;3.00;3.00;;;;;-147.17;100.00;-15917.19;5068811;28;51180;-71
2023/05/09 07:27:24;;;;;;;;;3.33;3.33;;;;;-147.17;100.00;-15917.19;5039123;28;51261;-74
2023/05/09 07:29:51;;;;;;;;;5.00;4.67;;;;;-147.17;100.00;-15917.19;5068081;28;51048;-71
2023/05/09 07:32:17;;;;;;;;;3.00;2.67;;;;;-147.17;100.00;-15917.19;5060289;28;51311;-74
2023/05/09 07:34:42;;;;;;;;;3.00;3.00;;;;;-147.17;100.00;-15917.19;5061697;28;51043;-72
2023/05/09 07:37:08;;;;;;;;;4.00;4.00;;;;;-147.17;100.00;-15917.19;5059249;28;51116;-72
2023/05/09 07:39:33;;;;;;;;;4.00;4.00;;;;;-147.17;100.00;-15917.19;5062605;28;51195;-71
2023/05/09 07:41:58;;;;;;;;;3.00;3.00;;;;;-147.17;100.00;-15917.19;5065239;28;51203;-70
2023/05/09 07:44:24;;;;;;;;;2.00;2.00;;;;;-147.17;100.00;-15917.19;5057402;28;55809;-71
2023/05/09 07:46:49;;;;;;;;;4.00;4.00;;;;;-147.17;100.00;-15917.19;5071244;28;51011;-70
2023/05/09 07:49:14;;;;;;;;;4.00;4.00;;;;;-147.17;100.00;-15917.19;5062063;28;51152;-71
2023/05/09 07:51:40;;;;;;;;;4.00;3.67;;;;;-147.17;100.00;-15917.19;5052481;28;51061;-70
2023/05/09 07:54:05;;;;;;;;;4.00;4.00;;;;;-147.17;100.00;-15917.19;5066215;28;52791;-69
2023/05/09 07:56:31;;;;;;;;;4.00;4.00;;;;;-147.17;100.00;-15917.19;5058024;28;50905;-70
2023/05/09 07:58:56;;;;;;;;;3.00;3.00;;;;;-147.17;100.00;-15917.19;5069299;28;51158;-72
2023/05/09 08:01:21;;;;;;;;;3.67;3.67;;;;;-147.17;100.00;-15917.19;5066372;28;50881;-69
2023/05/09 08:03:47;;;;;;;;;4.00;4.00;;;;;-147.17;100.00;-15917.19;5062344;28;51578;-72
2023/05/09 08:06:12;;;;;;;;;3.33;3.00;;;;;-147.17;100.00;-15917.19;5057693;28;51019;-73
2023/05/09 08:08:37;;;;;;;;;4.00;3.00;;;;;-147.17;100.00;-15917.19;5071239;28;50976;-71
2023/05/09 08:11:04;;;;;;;;;6.00;6.00;;;;;-147.17;100.00;-15917.19;5058882;28;51307;-71
2023/05/09 08:13:29;;;;;;;;;4.00;4.00;;;;;-147.17;100.00;-15917.19;5061244;28;52101;-71
2023/05/09 08:15:55;;;;;;;;;7.33;7.00;;;;;-147.17;100.00;-15917.19;5066012;28;51086;-71
2023/05/09 08:18:20;;;;;;;;;5.00;5.00;;;;;-147.17;100.00;-15917.19;5070478;28;50994;-71
2023/05/09 08:20:45;;;;;;;;;31.50;30.50;;;;;-147.17;100.00;-15917.19;5071263;28;50954;-72
2023/05/09 08:23:11;;;;;;;;;4.67;4.67;;;;;-147.17;100.00;-15917.19;5068253;28;51013;-71
2023/05/09 08:25:36;;;;;;;;;5.00;4.33;;;;;-147.17;100.00;-15917.19;5056110;28;63114;-70
2023/05/09 08:28:02;;;;;;;;;6.00;5.00;;;;;-147.17;100.00;-15917.19;5061897;28;51141;-68
2023/05/09 08:30:28;;;;;;;;;6.00;4.67;;;;;-147.17;100.00;-15917.19;5057072;28;51366;-71
2023/05/09 08:32:55;;;;;;;;;4.33;4.00;;;;;-147.17;100.00;-15917.19;5072809;28;51121;-71
2023/05/09 08:35:20;;;;;;;;;5.00;4.00;;;;;-147.17;100.00;-15917.19;5067055;28;51297;-70
2023/05/09 08:37:46;;;;;;;;;6.00;5.33;;;;;-147.17;100.00;-15917.19;5056270;28;51004;-69
2023/05/09 08:40:12;;;;;;;;;7.00;7.00;;;;;-147.17;100.00;-15917.19;5053806;28;51071;-69
2023/05/09 08:42:39;;;;;;;;;4.00;4.00;;;;;-147.17;100.00;-15917.19;5055882;28;51981;-69
2023/05/09 08:45:09;;;;;;;;;4.00;3.33;;;;;-147.17;100.00;-15917.19;5069496;28;51111;-69
2023/05/09 08:47:37;;;;;;;;;7.67;6.33;;;;;-147.17;100.00;-15917.19;5060567;28;51248;-70
2023/05/09 08:50:03;;;;;;;;;4.00;3.33;;;;;-147.17;100.00;-15917.19;5074179;28;51117;-69
2023/05/09 08:52:31;;;;;;;;;5.00;5.00;;;;;-147.17;100.00;-15917.19;5071872;28;51930;-69
2023/05/09 08:54:56;;;;;;;;;6.00;6.00;;;;;-147.17;100.00;-15917.19;5065888;28;51267;-69
2023/05/09 08:57:22;;;;;;;;;3.67;3.67;;;;;-147.17;100.00;-15917.19;5057728;28;51282;-69
2023/05/09 08:59:50;;;;;;;;;7.67;7.00;;;;;-147.17;100.00;-15917.19;5064905;28;51288;-69
2023/05/09 09:02:15;;;;;;;;;6.00;6.00;;;;;-147.17;100.00;-15917.19;5063384;28;51161;-69
2023/05/09 09:04:41;;;;;;;;;5.33;4.33;;;;;-147.17;100.00;-15917.19;5047103;28;51280;-69
2023/05/09 09:07:08;;;;;;;;;7.00;6.67;;;;;-147.17;100.00;-15917.19;5069401;28;52682;-70
2023/05/09 09:09:35;;;;;;;;;4.33;4.33;;;;;-147.17;100.00;-15917.19;5074514;28;51647;-69
2023/05/09 09:12:11;;;;;;;;;4.67;4.33;;;;;-147.17;100.00;-15917.19;5074322;28;51041;-69
2023/05/09 09:14:38;;;;;;;;;5.33;4.00;;;;;-147.17;100.00;-15917.19;5062788;28;51226;-69
2023/05/09 09:17:06;;;;;;;;;6.00;5.00;;;;;-147.17;100.00;-15917.19;5063618;28;51000;-69
2023/05/09 09:19:34;;;;;;;;;5.00;5.00;;;;;-147.17;100.00;-15917.19;5066568;27;50911;-70
2023/05/09 09:22:03;;;;;;;;;6.00;6.00;;;;;-147.17;100.00;-15917.19;5074888;27;52955;-69
2023/05/09 09:24:30;;;;;;;;;6.33;5.67;;;;;-147.17;100.00;-15917.19;5072623;28;51112;-69
2023/05/09 09:26:55;;;;;;;;;6.00;6.00;;;;;-147.17;100.00;-15917.19;5072347;28;51209;-68
2023/05/09 09:29:21;;;;;;;;;6.00;6.00;;;;;-147.17;100.00;-15917.19;5050887;28;51424;-59
2023/05/09 09:31:51;;;;;;;;;7.33;6.33;;;;;-147.17;100.00;-15917.19;5069910;27;51820;-59
2023/05/09 09:34:21;;;;;;;;;5.67;5.67;;;;;-147.17;100.00;-15917.19;5071973;28;51097;-66
2023/05/09 09:36:47;;;;;;;;;6.00;6.00;;;;;-147.17;100.00;-15917.19;5060782;28;51841;-66
2023/05/09 09:39:13;;;;;;;;;5.00;5.00;;;;;-147.17;100.00;-15917.19;5059180;28;51047;-69
2023/05/09 09:41:39;;;;;;;;;7.67;7.67;;;;;-147.17;100.00;-15917.19;5070914;28;52014;-70
2023/05/09 09:44:08;;;;;;;;;6.00;6.00;;;;;-147.17;100.00;-15917.19;5067816;28;51150;-69
2023/05/09 09:46:45;;;;;;;;;7.00;6.00;;;;;-147.17;100.00;-15917.19;5073309;28;51211;-70
2023/05/09 09:49:12;;;;;;;;;6.00;5.00;;;;;-147.17;100.00;-15917.19;5067692;28;51207;-71
2023/05/09 09:51:38;;;;;;;;;4.67;4.00;;;;;-147.17;100.00;-15917.19;5072631;28;50959;-68
2023/05/09 09:54:07;;;;;;;;;4.67;4.67;;;;;-147.17;100.00;-15917.19;5061052;28;51101;-70
2023/05/09 09:56:44;;;;;;;;;4.00;4.00;;;;;-147.17;100.00;-15917.19;5056564;28;52229;-70
2023/05/09 09:59:13;;;;;;;;;5.67;5.33;;;;;-147.17;100.00;-15917.19;5059804;28;51015;-70
2023/05/09 10:02:02;;;;;;;;;4.00;3.67;;;;;-147.17;100.00;-15917.19;5072997;28;51183;-70
2023/05/09 10:04:33;;;;;;;;;4.00;4.00;;;;;-147.17;100.00;-15917.19;5046278;28;51176;-69
2023/05/09 10:07:06;;;;;;;;;2.33;2.33;;;;;-147.17;100.00;-15917.19;5054213;28;51253;-70
2023/05/09 10:09:33;;;;;;;;;5.33;4.67;;;;;-147.17;100.00;-15917.19;5058545;28;51303;-69
2023/05/09 10:12:05;;;;;;;;;1.33;1.33;;;;;-147.17;100.00;-15917.19;5054993;28;51960;-71
2023/05/09 10:14:32;;;;;;;;;4.00;4.00;;;;;-147.17;100.00;-15917.19;5068998;28;51342;-73
2023/05/09 10:17:00;;;;;;;;;2.33;1.67;;;;;-147.17;100.00;-15917.19;5072968;28;51061;-73
2023/05/09 10:19:28;;;;;;;;;4.00;4.00;;;;;-147.17;100.00;-15917.19;5050851;28;51544;-74
2023/05/09 10:21:56;;;;;;;;;5.00;5.00;;;;;-147.17;100.00;-15917.19;5072678;28;52314;-74
2023/05/09 10:24:26;;;;;;;;;2.67;2.33;;;;;-147.17;100.00;-15917.19;5073445;28;50932;-75
2023/05/09 10:26:59;;;;;;;;;56.00;46.00;;;;;-147.17;100.00;-15917.19;5066770;28;51080;-76
2023/05/09 10:29:28;;;;;;;;;5.00;4.33;;;;;-147.17;100.00;-15917.19;5056540;28;51034;-73
2023/05/09 10:31:58;;;;;;;;;5.00;4.00;;;;;-147.17;100.00;-15917.19;5051691;28;51162;-74
2023/05/09 10:34:25;;;;;;;;;5.00;3.33;;;;;-147.17;100.00;-15917.19;5053150;28;51121;-73
2023/05/09 10:36:51;;;;;;;;;11.00;11.00;;;;;-147.17;100.00;-15917.19;5060127;28;51122;-74
2023/05/09 10:39:17;;;;;;;;;7.67;7.67;;;;;-147.17;100.00;-15917.19;5071855;28;51287;-75
2023/05/09 10:41:43;;;;;;;;;2.00;2.00;;;;;-147.17;100.00;-15917.19;5072322;28;51903;-74
2023/05/09 10:44:09;;;;;;;;;4.00;4.00;;;;;-147.17;100.00;-15917.19;5060511;28;51187;-75
2023/05/09 10:46:35;;;;;;;;;4.00;4.00;;;;;-147.17;100.00;-15917.19;5058835;28;50953;-75
2023/05/09 10:49:01;;;;;;;;;8.00;8.00;;;;;-147.17;100.00;-15917.19;5058250;28;51451;-75
2023/05/09 10:51:27;;;;;;;;;3.67;3.67;;;;;-147.17;100.00;-15917.19;5072594;28;50999;-74
2023/05/09 10:53:54;;;;;;;;;3.00;3.00;;;;;-147.17;100.00;-15917.19;5072123;28;51220;-75
2023/05/09 10:56:34;;;;;;;;;2.00;2.00;;;;;-147.17;100.00;-15917.19;5052245;28;50956;-73
2023/05/09 10:59:00;;;;;;;;;4.67;4.00;;;;;-147.17;100.00;-15917.19;5059269;28;51335;-73
2023/05/09 11:01:38;;;;;;;;;2.00;2.00;;;;;-147.17;100.00;-15917.19;5068462;28;52148;-73